sensor_id;sensor_type;location;lat;lon;timestamp;pressure;altitude;pressure_sealevel;temperature;humidity
82927;BME280;72788;40.218;44.486;2024-01-30T00:01:41;89517.22;;;3.54;50.21
82927;BME280;72788;40.218;44.486;2024-01-30T00:04:06;89507.59;;;3.58;50.73
82927;BME280;72788;40.218;44.486;2024-01-30T00:06:32;89512.91;;;3.61;50.73
82927;BME280;72788;40.218;44.486;2024-01-30T00:08:58;89521.19;;;3.63;50.37
82927;BME280;72788;40.218;44.486;2024-01-30T00:11:23;89519.00;;;3.65;50.42
82927;BME280;72788;40.218;44.486;2024-01-30T00:13:51;89523.06;;;3.63;50.38
82927;BME280;72788;40.218;44.486;2024-01-30T00:16:24;89519.00;;;3.65;50.27
82927;BME280;72788;40.218;44.486;2024-01-30T00:18:53;89523.28;;;3.58;50.66
82927;BME280;72788;40.218;44.486;2024-01-30T00:21:20;89518.56;;;3.48;49.82
82927;BME280;72788;40.218;44.486;2024-01-30T00:23:46;89517.25;;;3.42;49.66
82927;BME280;72788;40.218;44.486;2024-01-30T00:26:12;89516.63;;;3.45;49.86
82927;BME280;72788;40.218;44.486;2024-01-30T00:28:38;89514.41;;;3.47;50.70
82927;BME280;72788;40.218;44.486;2024-01-30T00:31:04;89521.56;;;3.50;50.03
82927;BME280;72788;40.218;44.486;2024-01-30T00:33:29;89516.72;;;3.48;50.88
82927;BME280;72788;40.218;44.486;2024-01-30T00:35:56;89514.84;;;3.49;51.01
82927;BME280;72788;40.218;44.486;2024-01-30T00:38:22;89519.63;;;3.47;50.41
82927;BME280;72788;40.218;44.486;2024-01-30T00:40:48;89521.31;;;3.39;50.59
82927;BME280;72788;40.218;44.486;2024-01-30T00:43:13;89520.25;;;3.28;50.90
82927;BME280;72788;40.218;44.486;2024-01-30T00:45:39;89509.56;;;3.17;50.71
82927;BME280;72788;40.218;44.486;2024-01-30T00:48:05;89515.31;;;3.11;50.96
82927;BME280;72788;40.218;44.486;2024-01-30T00:50:31;89514.03;;;3.05;50.37
82927;BME280;72788;40.218;44.486;2024-01-30T00:52:56;89523.63;;;3.01;50.88
82927;BME280;72788;40.218;44.486;2024-01-30T00:55:22;89520.81;;;2.94;50.82
82927;BME280;72788;40.218;44.486;2024-01-30T00:57:48;89511.91;;;2.82;51.05
82927;BME280;72788;40.218;44.486;2024-01-30T01:00:14;89524.00;;;2.75;51.46
82927;BME280;72788;40.218;44.486;2024-01-30T01:02:42;89523.38;;;2.66;51.53
82927;BME280;72788;40.218;44.486;2024-01-30T01:05:08;89519.47;;;2.60;51.30
82927;BME280;72788;40.218;44.486;2024-01-30T01:07:34;89518.19;;;2.54;51.26
82927;BME280;72788;40.218;44.486;2024-01-30T01:10:00;89525.03;;;2.46;51.85
82927;BME280;72788;40.218;44.486;2024-01-30T01:12:25;89531.13;;;2.38;51.75
82927;BME280;72788;40.218;44.486;2024-01-30T01:14:51;89533.94;;;2.33;51.85
82927;BME280;72788;40.218;44.486;2024-01-30T01:17:17;89538.72;;;2.31;52.33
82927;BME280;72788;40.218;44.486;2024-01-30T01:19:44;89540.22;;;2.32;51.65
82927;BME280;72788;40.218;44.486;2024-01-30T01:22:10;89545.34;;;2.28;51.41
82927;BME280;72788;40.218;44.486;2024-01-30T01:24:36;89536.63;;;2.24;52.02
82927;BME280;72788;40.218;44.486;2024-01-30T01:27:02;89541.09;;;2.24;51.80
82927;BME280;72788;40.218;44.486;2024-01-30T01:29:28;89543.38;;;2.25;51.34
82927;BME280;72788;40.218;44.486;2024-01-30T01:31:55;89543.16;;;2.18;51.40
82927;BME280;72788;40.218;44.486;2024-01-30T01:34:21;89550.53;;;2.16;51.84
82927;BME280;72788;40.218;44.486;2024-01-30T01:36:47;89547.72;;;2.21;51.89
82927;BME280;72788;40.218;44.486;2024-01-30T01:39:12;89540.78;;;2.25;51.62
82927;BME280;72788;40.218;44.486;2024-01-30T01:41:38;89541.19;;;2.27;51.34
82927;BME280;72788;40.218;44.486;2024-01-30T01:44:04;89539.91;;;2.33;51.22
82927;BME280;72788;40.218;44.486;2024-01-30T01:46:32;89534.81;;;2.37;50.82
82927;BME280;72788;40.218;44.486;2024-01-30T01:48:58;89543.81;;;2.39;50.69
82927;BME280;72788;40.218;44.486;2024-01-30T01:51:27;89553.59;;;2.43;50.64
82927;BME280;72788;40.218;44.486;2024-01-30T01:53:54;89556.22;;;2.43;50.19
82927;BME280;72788;40.218;44.486;2024-01-30T01:56:20;89554.34;;;2.43;50.16
82927;BME280;72788;40.218;44.486;2024-01-30T01:58:47;89554.69;;;2.42;50.02
82927;BME280;72788;40.218;44.486;2024-01-30T02:01:16;89564.34;;;2.41;50.03
82927;BME280;72788;40.218;44.486;2024-01-30T02:03:44;89553.91;;;2.41;50.12
82927;BME280;72788;40.218;44.486;2024-01-30T02:06:11;89554.13;;;2.48;50.19
82927;BME280;72788;40.218;44.486;2024-01-30T02:08:37;89555.34;;;2.51;49.94
82927;BME280;72788;40.218;44.486;2024-01-30T02:11:05;89554.78;;;2.57;50.20
82927;BME280;72788;40.218;44.486;2024-01-30T02:13:30;89545.22;;;2.61;50.09
82927;BME280;72788;40.218;44.486;2024-01-30T02:15:56;89549.47;;;2.66;50.01
82927;BME280;72788;40.218;44.486;2024-01-30T02:18:22;89554.88;;;2.73;50.16
82927;BME280;72788;40.218;44.486;2024-01-30T02:20:48;89553.34;;;2.84;50.58
82927;BME280;72788;40.218;44.486;2024-01-30T02:23:15;89557.47;;;2.85;50.33
82927;BME280;72788;40.218;44.486;2024-01-30T02:25:42;89553.13;;;2.77;50.08
82927;BME280;72788;40.218;44.486;2024-01-30T02:28:13;89558.56;;;2.72;50.35
82927;BME280;72788;40.218;44.486;2024-01-30T02:30:39;89554.78;;;2.69;49.72
82927;BME280;72788;40.218;44.486;2024-01-30T02:33:05;89557.72;;;2.56;49.84
82927;BME280;72788;40.218;44.486;2024-01-30T02:35:31;89560.00;;;2.57;50.34
82927;BME280;72788;40.218;44.486;2024-01-30T02:37:56;89550.53;;;2.65;50.49
82927;BME280;72788;40.218;44.486;2024-01-30T02:40:22;89554.44;;;2.71;50.25
82927;BME280;72788;40.218;44.486;2024-01-30T02:42:48;89557.59;;;2.76;50.49
82927;BME280;72788;40.218;44.486;2024-01-30T02:45:13;89552.91;;;2.82;50.90
82927;BME280;72788;40.218;44.486;2024-01-30T02:47:40;89562.47;;;2.90;50.71
82927;BME280;72788;40.218;44.486;2024-01-30T02:50:06;89562.66;;;2.97;50.62
82927;BME280;72788;40.218;44.486;2024-01-30T02:52:32;89556.34;;;2.98;50.49
82927;BME280;72788;40.218;44.486;2024-01-30T02:54:58;89559.50;;;3.04;50.03
82927;BME280;72788;40.218;44.486;2024-01-30T02:57:23;89565.66;;;3.11;49.92
82927;BME280;72788;40.218;44.486;2024-01-30T02:59:49;89564.13;;;3.10;49.91
82927;BME280;72788;40.218;44.486;2024-01-30T03:02:15;89573.19;;;3.13;50.05
82927;BME280;72788;40.218;44.486;2024-01-30T03:04:41;89571.97;;;3.10;50.34
82927;BME280;72788;40.218;44.486;2024-01-30T03:07:08;89577.28;;;3.14;50.35
82927;BME280;72788;40.218;44.486;2024-01-30T03:09:33;89575.13;;;3.16;50.03
82927;BME280;72788;40.218;44.486;2024-01-30T03:11:59;89571.84;;;3.19;50.28
82927;BME280;72788;40.218;44.486;2024-01-30T03:14:24;89568.56;;;3.22;50.03
82927;BME280;72788;40.218;44.486;2024-01-30T03:16:50;89573.88;;;3.25;50.54
82927;BME280;72788;40.218;44.486;2024-01-30T03:19:16;89565.06;;;3.30;50.17
82927;BME280;72788;40.218;44.486;2024-01-30T03:21:42;89569.88;;;3.28;50.55
82927;BME280;72788;40.218;44.486;2024-01-30T03:24:07;89571.06;;;3.30;50.52
82927;BME280;72788;40.218;44.486;2024-01-30T03:26:34;89577.34;;;3.29;50.12
82927;BME280;72788;40.218;44.486;2024-01-30T03:29:00;89574.13;;;3.20;50.56
82927;BME280;72788;40.218;44.486;2024-01-30T03:31:25;89567.38;;;3.19;50.65
82927;BME280;72788;40.218;44.486;2024-01-30T03:33:51;89575.66;;;3.21;50.64
82927;BME280;72788;40.218;44.486;2024-01-30T03:36:17;89576.41;;;3.22;50.52
82927;BME280;72788;40.218;44.486;2024-01-30T03:38:42;89573.78;;;3.22;50.37
82927;BME280;72788;40.218;44.486;2024-01-30T03:41:08;89584.69;;;3.24;50.45
82927;BME280;72788;40.218;44.486;2024-01-30T03:43:35;89589.44;;;3.22;51.04
82927;BME280;72788;40.218;44.486;2024-01-30T03:46:02;89586.19;;;3.25;50.53
82927;BME280;72788;40.218;44.486;2024-01-30T03:48:28;89590.31;;;3.26;50.31
82927;BME280;72788;40.218;44.486;2024-01-30T03:50:54;89587.59;;;3.22;50.06
82927;BME280;72788;40.218;44.486;2024-01-30T03:53:19;89589.13;;;3.23;50.96
82927;BME280;72788;40.218;44.486;2024-01-30T03:55:45;89583.50;;;3.21;50.18
82927;BME280;72788;40.218;44.486;2024-01-30T03:58:11;89584.69;;;3.12;50.32
82927;BME280;72788;40.218;44.486;2024-01-30T04:00:36;89597.66;;;3.08;50.60
82927;BME280;72788;40.218;44.486;2024-01-30T04:03:02;89600.16;;;3.05;50.33
82927;BME280;72788;40.218;44.486;2024-01-30T04:05:28;89606.38;;;3.00;50.52
82927;BME280;72788;40.218;44.486;2024-01-30T04:07:54;89613.44;;;3.00;51.07
82927;BME280;72788;40.218;44.486;2024-01-30T04:10:20;89609.38;;;3.02;51.04
82927;BME280;72788;40.218;44.486;2024-01-30T04:12:45;89613.44;;;3.00;50.73
82927;BME280;72788;40.218;44.486;2024-01-30T04:15:11;89605.50;;;2.96;51.54
82927;BME280;72788;40.218;44.486;2024-01-30T04:17:39;89616.25;;;2.95;51.51
82927;BME280;72788;40.218;44.486;2024-01-30T04:20:05;89616.50;;;2.90;51.12
82927;BME280;72788;40.218;44.486;2024-01-30T04:22:31;89615.94;;;2.84;51.24
82927;BME280;72788;40.218;44.486;2024-01-30T04:24:57;89621.38;;;2.79;51.51
82927;BME280;72788;40.218;44.486;2024-01-30T04:27:23;89617.38;;;2.69;51.64
82927;BME280;72788;40.218;44.486;2024-01-30T04:29:48;89620.63;;;2.66;51.70
82927;BME280;72788;40.218;44.486;2024-01-30T04:32:14;89627.59;;;2.62;51.24
82927;BME280;72788;40.218;44.486;2024-01-30T04:34:40;89632.34;;;2.60;51.15
82927;BME280;72788;40.218;44.486;2024-01-30T04:37:05;89637.47;;;2.57;51.73
82927;BME280;72788;40.218;44.486;2024-01-30T04:39:33;89631.69;;;2.51;51.67
82927;BME280;72788;40.218;44.486;2024-01-30T04:41:58;89636.78;;;2.48;51.63
82927;BME280;72788;40.218;44.486;2024-01-30T04:44:24;89648.75;;;2.49;51.79
82927;BME280;72788;40.218;44.486;2024-01-30T04:46:50;89644.63;;;2.48;51.50
82927;BME280;72788;40.218;44.486;2024-01-30T04:49:16;89652.22;;;2.53;52.45
82927;BME280;72788;40.218;44.486;2024-01-30T04:51:41;89648.56;;;2.54;52.26
82927;BME280;72788;40.218;44.486;2024-01-30T04:54:08;89654.63;;;2.58;52.41
82927;BME280;72788;40.218;44.486;2024-01-30T04:56:33;89648.09;;;2.64;52.36
82927;BME280;72788;40.218;44.486;2024-01-30T04:59:02;89656.03;;;2.67;51.28
82927;BME280;72788;40.218;44.486;2024-01-30T05:01:28;89657.34;;;2.61;51.13
82927;BME280;72788;40.218;44.486;2024-01-30T05:03:53;89664.09;;;2.62;51.29
82927;BME280;72788;40.218;44.486;2024-01-30T05:06:26;89662.13;;;2.59;52.00
82927;BME280;72788;40.218;44.486;2024-01-30T05:08:52;89670.63;;;2.68;51.76
82927;BME280;72788;40.218;44.486;2024-01-30T05:11:18;89667.69;;;2.70;51.88
82927;BME280;72788;40.218;44.486;2024-01-30T05:13:44;89669.75;;;2.76;51.50
82927;BME280;72788;40.218;44.486;2024-01-30T05:16:10;89663.22;;;2.82;51.85
82927;BME280;72788;40.218;44.486;2024-01-30T05:18:35;89668.00;;;2.93;51.39
82927;BME280;72788;40.218;44.486;2024-01-30T05:21:02;89670.06;;;2.99;51.79
82927;BME280;72788;40.218;44.486;2024-01-30T05:23:29;89681.06;;;3.05;51.75
82927;BME280;72788;40.218;44.486;2024-01-30T05:25:54;89671.50;;;3.09;51.44
82927;BME280;72788;40.218;44.486;2024-01-30T05:28:20;89671.81;;;3.19;51.02
82927;BME280;72788;40.218;44.486;2024-01-30T05:30:46;89658.44;;;3.21;51.22
82927;BME280;72788;40.218;44.486;2024-01-30T05:33:11;89682.00;;;3.37;50.56
82927;BME280;72788;40.218;44.486;2024-01-30T05:35:38;89660.88;;;3.42;50.39
82927;BME280;72788;40.218;44.486;2024-01-30T05:38:03;89685.91;;;3.43;50.65
82927;BME280;72788;40.218;44.486;2024-01-30T05:40:33;89669.34;;;3.51;50.83
82927;BME280;72788;40.218;44.486;2024-01-30T05:42:58;89679.34;;;3.61;51.11
82927;BME280;72788;40.218;44.486;2024-01-30T05:45:28;89679.66;;;3.71;50.80
82927;BME280;72788;40.218;44.486;2024-01-30T05:47:54;89679.94;;;3.82;50.60
82927;BME280;72788;40.218;44.486;2024-01-30T05:50:19;89693.28;;;3.93;50.26
82927;BME280;72788;40.218;44.486;2024-01-30T05:52:45;89683.84;;;3.88;49.74
82927;BME280;72788;40.218;44.486;2024-01-30T05:55:12;89679.31;;;3.73;49.50
82927;BME280;72788;40.218;44.486;2024-01-30T05:57:38;89677.25;;;3.66;50.20
82927;BME280;72788;40.218;44.486;2024-01-30T06:00:05;89682.69;;;3.73;49.69
82927;BME280;72788;40.218;44.486;2024-01-30T06:02:31;89681.88;;;3.85;50.39
82927;BME280;72788;40.218;44.486;2024-01-30T06:04:58;89688.91;;;3.97;50.49
82927;BME280;72788;40.218;44.486;2024-01-30T06:07:24;89683.47;;;4.02;49.13
82927;BME280;72788;40.218;44.486;2024-01-30T06:09:49;89687.16;;;4.01;49.85
82927;BME280;72788;40.218;44.486;2024-01-30T06:12:15;89695.44;;;4.03;49.24
82927;BME280;72788;40.218;44.486;2024-01-30T06:14:41;89684.41;;;4.09;49.54
82927;BME280;72788;40.218;44.486;2024-01-30T06:17:08;89693.88;;;4.14;49.55
82927;BME280;72788;40.218;44.486;2024-01-30T06:19:34;89691.88;;;4.23;50.05
82927;BME280;72788;40.218;44.486;2024-01-30T06:22:00;89695.84;;;4.33;49.79
82927;BME280;72788;40.218;44.486;2024-01-30T06:24:26;89678.50;;;4.40;49.48
82927;BME280;72788;40.218;44.486;2024-01-30T06:26:53;89690.91;;;4.59;49.56
82927;BME280;72788;40.218;44.486;2024-01-30T06:29:18;89681.31;;;4.63;48.87
82927;BME280;72788;40.218;44.486;2024-01-30T06:31:44;89680.13;;;4.60;48.46
82927;BME280;72788;40.218;44.486;2024-01-30T06:34:10;89684.13;;;4.70;48.66
82927;BME280;72788;40.218;44.486;2024-01-30T06:36:37;89683.00;;;4.71;48.90
82927;BME280;72788;40.218;44.486;2024-01-30T06:39:03;89681.16;;;4.71;48.62
82927;BME280;72788;40.218;44.486;2024-01-30T06:41:29;89683.44;;;4.73;48.14
82927;BME280;72788;40.218;44.486;2024-01-30T06:43:56;89675.16;;;4.71;47.88
82927;BME280;72788;40.218;44.486;2024-01-30T06:46:21;89687.16;;;4.72;47.88
82927;BME280;72788;40.218;44.486;2024-01-30T06:48:47;89694.41;;;4.78;48.71
82927;BME280;72788;40.218;44.486;2024-01-30T06:51:13;89696.78;;;4.84;48.51
82927;BME280;72788;40.218;44.486;2024-01-30T06:53:38;89698.06;;;4.90;48.70
82927;BME280;72788;40.218;44.486;2024-01-30T06:56:05;89699.41;;;4.99;47.62
82927;BME280;72788;40.218;44.486;2024-01-30T06:58:30;89699.16;;;5.04;47.79
82927;BME280;72788;40.218;44.486;2024-01-30T07:00:57;89698.53;;;5.11;47.28
82927;BME280;72788;40.218;44.486;2024-01-30T07:03:23;89702.84;;;5.19;47.05
82927;BME280;72788;40.218;44.486;2024-01-30T07:05:49;89707.25;;;5.15;47.85
82927;BME280;72788;40.218;44.486;2024-01-30T07:08:16;89710.97;;;5.14;48.02
82927;BME280;72788;40.218;44.486;2024-01-30T07:10:44;89709.25;;;5.21;47.21
82927;BME280;72788;40.218;44.486;2024-01-30T07:13:11;89703.69;;;5.23;48.35
82927;BME280;72788;40.218;44.486;2024-01-30T07:15:36;89699.06;;;5.32;47.38
82927;BME280;72788;40.218;44.486;2024-01-30T07:18:03;89711.03;;;5.49;47.67
82927;BME280;72788;40.218;44.486;2024-01-30T07:20:30;89713.44;;;5.57;47.50
82927;BME280;72788;40.218;44.486;2024-01-30T07:23:00;89708.50;;;5.52;48.08
82927;BME280;72788;40.218;44.486;2024-01-30T07:25:26;89710.63;;;5.66;47.85
82927;BME280;72788;40.218;44.486;2024-01-30T07:27:52;89707.66;;;5.83;47.21
82927;BME280;72788;40.218;44.486;2024-01-30T07:30:19;89710.94;;;5.96;47.53
82927;BME280;72788;40.218;44.486;2024-01-30T07:32:46;89705.16;;;6.06;46.88
82927;BME280;72788;40.218;44.486;2024-01-30T07:35:12;89700.59;;;6.03;46.49
82927;BME280;72788;40.218;44.486;2024-01-30T07:37:38;89708.53;;;6.06;46.43
82927;BME280;72788;40.218;44.486;2024-01-30T07:40:04;89698.38;;;6.05;46.02
82927;BME280;72788;40.218;44.486;2024-01-30T07:42:29;89699.84;;;6.02;46.42
82927;BME280;72788;40.218;44.486;2024-01-30T07:44:55;89701.34;;;6.03;46.25
82927;BME280;72788;40.218;44.486;2024-01-30T07:47:21;89696.50;;;6.05;46.40
82927;BME280;72788;40.218;44.486;2024-01-30T07:49:47;89701.13;;;6.12;46.37
82927;BME280;72788;40.218;44.486;2024-01-30T07:52:13;89696.25;;;6.10;46.98
82927;BME280;72788;40.218;44.486;2024-01-30T07:54:38;89699.28;;;6.12;46.41
82927;BME280;72788;40.218;44.486;2024-01-30T07:57:04;89694.47;;;6.14;46.82
82927;BME280;72788;40.218;44.486;2024-01-30T07:59:30;89691.91;;;6.18;46.75
82927;BME280;72788;40.218;44.486;2024-01-30T08:01:55;89693.06;;;6.21;46.18
82927;BME280;72788;40.218;44.486;2024-01-30T08:04:21;89684.03;;;6.18;46.21
82927;BME280;72788;40.218;44.486;2024-01-30T08:06:47;89686.72;;;6.22;45.74
82927;BME280;72788;40.218;44.486;2024-01-30T08:09:14;89696.72;;;6.16;46.14
82927;BME280;72788;40.218;44.486;2024-01-30T08:11:40;89695.75;;;6.05;46.67
82927;BME280;72788;40.218;44.486;2024-01-30T08:14:05;89693.50;;;6.03;46.80
82927;BME280;72788;40.218;44.486;2024-01-30T08:16:31;89693.19;;;6.08;47.00
82927;BME280;72788;40.218;44.486;2024-01-30T08:18:57;89692.53;;;6.11;46.39
82927;BME280;72788;40.218;44.486;2024-01-30T08:21:23;89684.84;;;6.03;45.93
82927;BME280;72788;40.218;44.486;2024-01-30T08:23:49;89682.78;;;5.93;46.44
82927;BME280;72788;40.218;44.486;2024-01-30T08:26:15;89686.03;;;5.70;46.87
82927;BME280;72788;40.218;44.486;2024-01-30T08:28:40;89685.81;;;5.60;47.05
82927;BME280;72788;40.218;44.486;2024-01-30T08:31:06;89685.88;;;5.63;46.96
82927;BME280;72788;40.218;44.486;2024-01-30T08:33:32;89684.78;;;5.64;47.14
82927;BME280;72788;40.218;44.486;2024-01-30T08:35:57;89686.44;;;5.72;47.11
82927;BME280;72788;40.218;44.486;2024-01-30T08:38:23;89671.06;;;5.71;46.74
82927;BME280;72788;40.218;44.486;2024-01-30T08:40:49;89674.03;;;5.69;47.02
82927;BME280;72788;40.218;44.486;2024-01-30T08:43:15;89669.47;;;5.66;47.23
82927;BME280;72788;40.218;44.486;2024-01-30T08:45:40;89666.00;;;5.62;47.67
82927;BME280;72788;40.218;44.486;2024-01-30T08:48:07;89665.63;;;5.60;47.29
82927;BME280;72788;40.218;44.486;2024-01-30T08:50:33;89663.13;;;5.67;47.52
82927;BME280;72788;40.218;44.486;2024-01-30T08:52:59;89665.81;;;5.71;46.90
82927;BME280;72788;40.218;44.486;2024-01-30T08:55:25;89662.00;;;5.68;46.84
82927;BME280;72788;40.218;44.486;2024-01-30T08:57:51;89665.00;;;5.67;47.48
82927;BME280;72788;40.218;44.486;2024-01-30T09:00:17;89658.09;;;5.78;47.16
82927;BME280;72788;40.218;44.486;2024-01-30T09:02:43;89656.31;;;5.82;46.73
82927;BME280;72788;40.218;44.486;2024-01-30T09:05:09;89657.34;;;5.78;47.74
82927;BME280;72788;40.218;44.486;2024-01-30T09:07:34;89649.22;;;5.83;47.75
82927;BME280;72788;40.218;44.486;2024-01-30T09:10:00;89655.72;;;5.89;47.65
82927;BME280;72788;40.218;44.486;2024-01-30T09:12:26;89645.81;;;5.82;46.89
82927;BME280;72788;40.218;44.486;2024-01-30T09:14:51;89648.72;;;5.77;47.45
82927;BME280;72788;40.218;44.486;2024-01-30T09:17:17;89650.94;;;5.75;47.38
82927;BME280;72788;40.218;44.486;2024-01-30T09:19:43;89643.53;;;5.81;47.60
82927;BME280;72788;40.218;44.486;2024-01-30T09:22:08;89640.34;;;5.87;47.46
82927;BME280;72788;40.218;44.486;2024-01-30T09:24:34;89650.31;;;5.82;46.51
82927;BME280;72788;40.218;44.486;2024-01-30T09:27:00;89651.41;;;5.81;46.96
82927;BME280;72788;40.218;44.486;2024-01-30T09:29:25;89641.59;;;5.78;47.46
82927;BME280;72788;40.218;44.486;2024-01-30T09:31:51;89643.06;;;5.75;47.24
82927;BME280;72788;40.218;44.486;2024-01-30T09:34:17;89638.09;;;5.70;47.37
82927;BME280;72788;40.218;44.486;2024-01-30T09:36:43;89641.16;;;5.72;47.56
82927;BME280;72788;40.218;44.486;2024-01-30T09:39:09;89637.81;;;5.75;47.54
82927;BME280;72788;40.218;44.486;2024-01-30T09:41:43;89642.22;;;5.87;46.99
82927;BME280;72788;40.218;44.486;2024-01-30T09:44:11;89642.09;;;5.83;46.93
82927;BME280;72788;40.218;44.486;2024-01-30T09:46:38;89642.22;;;5.71;47.36
82927;BME280;72788;40.218;44.486;2024-01-30T09:49:05;89651.31;;;5.58;47.21
82927;BME280;72788;40.218;44.486;2024-01-30T09:51:32;89640.72;;;5.35;47.53
82927;BME280;72788;40.218;44.486;2024-01-30T09:53:58;89646.16;;;5.27;48.32
82927;BME280;72788;40.218;44.486;2024-01-30T09:56:24;89652.16;;;5.27;48.07
82927;BME280;72788;40.218;44.486;2024-01-30T09:58:50;89654.00;;;5.27;48.69
82927;BME280;72788;40.218;44.486;2024-01-30T10:01:17;89650.38;;;5.31;48.13
82927;BME280;72788;40.218;44.486;2024-01-30T10:03:44;89654.22;;;5.37;48.52
82927;BME280;72788;40.218;44.486;2024-01-30T10:06:11;89646.56;;;5.44;48.22
82927;BME280;72788;40.218;44.486;2024-01-30T10:08:37;89643.44;;;5.39;48.81
82927;BME280;72788;40.218;44.486;2024-01-30T10:11:03;89646.88;;;5.43;48.25
82927;BME280;72788;40.218;44.486;2024-01-30T10:13:29;89643.66;;;5.49;48.17
82927;BME280;72788;40.218;44.486;2024-01-30T10:15:55;89644.69;;;5.45;48.47
82927;BME280;72788;40.218;44.486;2024-01-30T10:18:22;89644.69;;;5.45;48.28
82927;BME280;72788;40.218;44.486;2024-01-30T10:20:48;89647.81;;;5.35;48.50
82927;BME280;72788;40.218;44.486;2024-01-30T10:23:14;89644.88;;;5.36;48.35
82927;BME280;72788;40.218;44.486;2024-01-30T10:25:40;89644.81;;;5.33;49.23
82927;BME280;72788;40.218;44.486;2024-01-30T10:28:06;89641.06;;;5.34;48.61
82927;BME280;72788;40.218;44.486;2024-01-30T10:30:31;89633.88;;;5.31;48.65
82927;BME280;72788;40.218;44.486;2024-01-30T10:32:57;89653.91;;;5.39;48.84
82927;BME280;72788;40.218;44.486;2024-01-30T10:35:23;89636.84;;;5.45;48.14
82927;BME280;72788;40.218;44.486;2024-01-30T10:37:48;89639.34;;;5.41;47.87
82927;BME280;72788;40.218;44.486;2024-01-30T10:40:14;89634.53;;;5.43;47.64
82927;BME280;72788;40.218;44.486;2024-01-30T10:42:45;89636.22;;;5.51;48.38
82927;BME280;72788;40.218;44.486;2024-01-30T10:45:14;89633.72;;;5.58;48.09
82927;BME280;72788;40.218;44.486;2024-01-30T10:47:49;89640.84;;;5.58;47.33
82927;BME280;72788;40.218;44.486;2024-01-30T10:50:14;89637.88;;;5.59;47.10
82927;BME280;72788;40.218;44.486;2024-01-30T10:52:42;89644.28;;;5.62;47.75
82927;BME280;72788;40.218;44.486;2024-01-30T10:55:09;89635.91;;;5.72;47.31
82927;BME280;72788;40.218;44.486;2024-01-30T10:57:35;89640.09;;;5.77;47.21
82927;BME280;72788;40.218;44.486;2024-01-30T11:00:04;89634.19;;;5.80;47.95
82927;BME280;72788;40.218;44.486;2024-01-30T11:02:45;89639.22;;;5.88;47.79
82927;BME280;72788;40.218;44.486;2024-01-30T11:05:12;89641.72;;;6.00;47.78
82927;BME280;72788;40.218;44.486;2024-01-30T11:07:41;89639.00;;;6.16;47.38
82927;BME280;72788;40.218;44.486;2024-01-30T11:10:07;89641.09;;;6.26;46.73
82927;BME280;72788;40.218;44.486;2024-01-30T11:12:39;89634.75;;;6.27;47.36
82927;BME280;72788;40.218;44.486;2024-01-30T11:15:19;89643.00;;;6.29;46.75
82927;BME280;72788;40.218;44.486;2024-01-30T11:20:36;89642.94;;;6.26;46.89
82927;BME280;72788;40.218;44.486;2024-01-30T11:23:02;89638.59;;;6.33;47.42
82927;BME280;72788;40.218;44.486;2024-01-30T11:25:31;89634.16;;;6.37;46.90
82927;BME280;72788;40.218;44.486;2024-01-30T11:27:57;89637.63;;;6.41;46.85
82927;BME280;72788;40.218;44.486;2024-01-30T11:35:35;89637.63;;;6.41;47.45
82927;BME280;72788;40.218;44.486;2024-01-30T11:38:02;89641.88;;;6.49;46.41
82927;BME280;72788;40.218;44.486;2024-01-30T11:40:29;89640.06;;;6.53;46.51
82927;BME280;72788;40.218;44.486;2024-01-30T11:42:56;89631.97;;;6.62;46.40
82927;BME280;72788;40.218;44.486;2024-01-30T11:45:22;89636.31;;;6.74;46.89
82927;BME280;72788;40.218;44.486;2024-01-30T11:47:47;89636.13;;;6.86;46.27
82927;BME280;72788;40.218;44.486;2024-01-30T11:50:13;89638.44;;;6.91;46.42
82927;BME280;72788;40.218;44.486;2024-01-30T11:52:40;89642.13;;;6.86;45.92
82927;BME280;72788;40.218;44.486;2024-01-30T11:55:08;89646.63;;;6.86;46.53
82927;BME280;72788;40.218;44.486;2024-01-30T11:57:34;89640.72;;;6.92;46.64
82927;BME280;72788;40.218;44.486;2024-01-30T12:00:04;89639.31;;;6.98;46.48
82927;BME280;72788;40.218;44.486;2024-01-30T12:02:36;89644.56;;;6.98;46.37
82927;BME280;72788;40.218;44.486;2024-01-30T12:05:05;89651.34;;;6.99;45.79
82927;BME280;72788;40.218;44.486;2024-01-30T12:07:32;89650.13;;;6.93;46.09
82927;BME280;72788;40.218;44.486;2024-01-30T12:09:58;89634.19;;;6.83;45.99
82927;BME280;72788;40.218;44.486;2024-01-30T12:12:27;89648.13;;;6.87;45.67
82927;BME280;72788;40.218;44.486;2024-01-30T12:14:53;89649.94;;;6.83;46.21
82927;BME280;72788;40.218;44.486;2024-01-30T12:17:38;89650.69;;;6.83;44.36
82927;BME280;72788;40.218;44.486;2024-01-30T12:20:14;89652.50;;;6.79;45.94
82927;BME280;72788;40.218;44.486;2024-01-30T12:22:41;89652.38;;;6.72;46.10
82927;BME280;72788;40.218;44.486;2024-01-30T12:27:34;89650.53;;;6.73;45.63
82927;BME280;72788;40.218;44.486;2024-01-30T12:30:00;89652.38;;;6.72;45.37
82927;BME280;72788;40.218;44.486;2024-01-30T12:32:25;89653.50;;;6.71;45.78
82927;BME280;72788;40.218;44.486;2024-01-30T12:34:55;89649.00;;;6.72;45.76
82927;BME280;72788;40.218;44.486;2024-01-30T12:37:22;89649.72;;;6.69;45.37
82927;BME280;72788;40.218;44.486;2024-01-30T12:39:51;89658.09;;;6.55;45.48
82927;BME280;72788;40.218;44.486;2024-01-30T12:42:19;89656.75;;;6.42;45.53
82927;BME280;72788;40.218;44.486;2024-01-30T12:44:45;89662.75;;;6.42;46.22
82927;BME280;72788;40.218;44.486;2024-01-30T12:47:11;89660.75;;;6.36;45.95
82927;BME280;72788;40.218;44.486;2024-01-30T12:49:36;89661.78;;;6.31;45.78
82927;BME280;72788;40.218;44.486;2024-01-30T12:52:02;89653.38;;;6.22;45.85
82927;BME280;72788;40.218;44.486;2024-01-30T12:54:28;89662.78;;;6.23;46.07
82927;BME280;72788;40.218;44.486;2024-01-30T12:56:54;89665.41;;;6.23;46.97
82927;BME280;72788;40.218;44.486;2024-01-30T12:59:19;89652.44;;;6.11;46.07
82927;BME280;72788;40.218;44.486;2024-01-30T13:01:45;89665.09;;;6.09;46.62
82927;BME280;72788;40.218;44.486;2024-01-30T13:04:11;89672.16;;;6.05;46.50
82927;BME280;72788;40.218;44.486;2024-01-30T13:06:37;89672.78;;;5.98;47.37